WZZ9HY EDLW-LYBE
Flight info
| Callsign | WZZ9HY |
|---|---|
| Flight time | 1h 34m |
| Altitude | 35000 |
| Route | GMH8Q GMH Q603 TESGA DCT ESATI DCT OSBIT DCT TENLO DCT LAMSI DCT SITNI DCT SASAL DCT BABIT DCT RIGMU |
| Aircraft | A21N/M-SDE1E2E3FGIJ1J4RWXY/LB1 |
Departure
| Time | 2026-04-28 14:40 |
|---|---|
| Airport | Dortmund Airport (EDLW) |
Arrival
| Time | 2026-04-28 16:14 |
|---|---|
| Airport | Belgrade Nikola Tesla Airport (LYBE) |
| Time | Latitude | Longitude | Altitude | Speed | Heading |
|---|---|---|---|---|---|
| 2026-04-28 14:19 | 51.51598 | 7.61358 | 429 ft | 0 kts | 331° |
| 2026-04-28 14:36 | 51.51599 | 7.61356 | 429 ft | 0 kts | 331° |
| 2026-04-28 14:36 | 51.51610 | 7.61346 | 429 ft | 2 kts | 332° |
| 2026-04-28 14:37 | 51.51633 | 7.61326 | 429 ft | 4 kts | 332° |
| 2026-04-28 14:37 | 51.51655 | 7.61286 | 429 ft | 5 kts | 277° |
| 2026-04-28 14:37 | 51.51637 | 7.61214 | 429 ft | 8 kts | 241° |
| 2026-04-28 14:37 | 51.51604 | 7.61119 | 429 ft | 10 kts | 241° |
| 2026-04-28 14:38 | 51.51569 | 7.60998 | 429 ft | 12 kts | 246° |
| 2026-04-28 14:38 | 51.51525 | 7.60874 | 429 ft | 13 kts | 239° |
| 2026-04-28 14:38 | 51.51477 | 7.60737 | 429 ft | 13 kts | 243° |
| 2026-04-28 14:38 | 51.51430 | 7.60591 | 429 ft | 15 kts | 243° |
| 2026-04-28 14:39 | 51.51374 | 7.60447 | 429 ft | 15 kts | 237° |
| 2026-04-28 14:39 | 51.51363 | 7.60309 | 429 ft | 13 kts | 314° |
| 2026-04-28 14:39 | 51.51439 | 7.60237 | 429 ft | 11 kts | 333° |
| 2026-04-28 14:39 | 51.51486 | 7.60224 | 429 ft | 7 kts | 52° |
| 2026-04-28 14:40 | 51.51550 | 7.60401 | 429 ft | 48 kts | 62° |
| 2026-04-28 14:40 | 51.51719 | 7.60878 | 429 ft | 100 kts | 63° |
| 2026-04-28 14:40 | 51.52355 | 7.62707 | 611 ft | 163 kts | 60° |
| 2026-04-28 14:40 | 51.52880 | 7.64224 | 1449 ft | 155 kts | 60° |
| 2026-04-28 14:41 | 51.53403 | 7.65748 | 2126 ft | 163 kts | 60° |
| 2026-04-28 14:41 | 51.53962 | 7.67346 | 2507 ft | 174 kts | 60° |
| 2026-04-28 14:41 | 51.54589 | 7.69115 | 2834 ft | 189 kts | 60° |
| 2026-04-28 14:41 | 51.55275 | 7.71038 | 3149 ft | 207 kts | 61° |
| 2026-04-28 14:42 | 51.56001 | 7.73160 | 3436 ft | 229 kts | 68° |
| 2026-04-28 14:42 | 51.56184 | 7.75747 | 3834 ft | 247 kts | 101° |
| 2026-04-28 14:42 | 51.55410 | 7.78224 | 4506 ft | 258 kts | 130° |
| 2026-04-28 14:42 | 51.53873 | 7.79769 | 5261 ft | 270 kts | 162° |
| 2026-04-28 14:43 | 51.51992 | 7.79731 | 5970 ft | 282 kts | 193° |
| 2026-04-28 14:43 | 51.50167 | 7.78651 | 6690 ft | 287 kts | 198° |
| 2026-04-28 14:43 | 51.48309 | 7.77494 | 7324 ft | 289 kts | 198° |
| 2026-04-28 14:43 | 51.46410 | 7.76339 | 7986 ft | 292 kts | 198° |
| 2026-04-28 14:44 | 51.44511 | 7.75236 | 8645 ft | 293 kts | 194° |
| 2026-04-28 14:44 | 51.42523 | 7.74943 | 9241 ft | 288 kts | 169° |
| 2026-04-28 14:44 | 51.40622 | 7.75818 | 9938 ft | 285 kts | 157° |
| 2026-04-28 14:44 | 51.38766 | 7.76924 | 10510 ft | 290 kts | 158° |
| 2026-04-28 14:45 | 51.36827 | 7.78059 | 10828 ft | 305 kts | 158° |
| 2026-04-28 14:45 | 51.34808 | 7.79221 | 11109 ft | 319 kts | 159° |
| 2026-04-28 14:45 | 51.32683 | 7.80432 | 11607 ft | 326 kts | 159° |
| 2026-04-28 14:45 | 51.30548 | 7.81637 | 12218 ft | 328 kts | 159° |
| 2026-04-28 14:46 | 51.28389 | 7.82852 | 12816 ft | 331 kts | 160° |
| 2026-04-28 14:46 | 51.26217 | 7.84070 | 13388 ft | 334 kts | 160° |
| 2026-04-28 14:46 | 51.24038 | 7.85290 | 13949 ft | 337 kts | 160° |
| 2026-04-28 14:46 | 51.21833 | 7.86523 | 14506 ft | 340 kts | 160° |
| 2026-04-28 14:47 | 51.19588 | 7.87779 | 15058 ft | 343 kts | 160° |
| 2026-04-28 14:47 | 51.17394 | 7.89217 | 15588 ft | 345 kts | 154° |
| 2026-04-28 14:47 | 51.15250 | 7.91032 | 16104 ft | 347 kts | 149° |
| 2026-04-28 14:47 | 51.13227 | 7.93057 | 16599 ft | 350 kts | 147° |
| 2026-04-28 14:48 | 51.11181 | 7.95153 | 17093 ft | 353 kts | 147° |
| 2026-04-28 14:48 | 51.09087 | 7.97298 | 17616 ft | 356 kts | 147° |
| 2026-04-28 14:48 | 51.07024 | 7.99404 | 18091 ft | 359 kts | 147° |
| 2026-04-28 14:48 | 51.04903 | 8.01567 | 18544 ft | 362 kts | 147° |
| 2026-04-28 14:49 | 51.02789 | 8.03717 | 18976 ft | 364 kts | 148° |
| 2026-04-28 14:49 | 51.00660 | 8.05878 | 19408 ft | 367 kts | 148° |
| 2026-04-28 14:49 | 50.98503 | 8.08061 | 19846 ft | 370 kts | 148° |
| 2026-04-28 14:49 | 50.96322 | 8.10264 | 20267 ft | 373 kts | 148° |
| 2026-04-28 14:50 | 50.94138 | 8.12467 | 20666 ft | 376 kts | 148° |
| 2026-04-28 14:50 | 50.91929 | 8.14691 | 21061 ft | 379 kts | 148° |
| 2026-04-28 14:50 | 50.89687 | 8.16945 | 21455 ft | 382 kts | 148° |
| 2026-04-28 14:50 | 50.87434 | 8.19209 | 21855 ft | 385 kts | 148° |
| 2026-04-28 14:51 | 50.85153 | 8.21499 | 22251 ft | 387 kts | 148° |
| 2026-04-28 14:51 | 50.82874 | 8.23784 | 22636 ft | 390 kts | 148° |
| 2026-04-28 14:51 | 50.80600 | 8.26062 | 23008 ft | 392 kts | 148° |
| 2026-04-28 14:51 | 50.78287 | 8.28376 | 23369 ft | 394 kts | 148° |
| 2026-04-28 14:52 | 50.75974 | 8.30689 | 23722 ft | 397 kts | 149° |
| 2026-04-28 14:52 | 50.73627 | 8.33034 | 24075 ft | 398 kts | 149° |
| 2026-04-28 14:52 | 50.71309 | 8.35346 | 24404 ft | 401 kts | 149° |
| 2026-04-28 14:52 | 50.68930 | 8.37717 | 24752 ft | 403 kts | 149° |
| 2026-04-28 14:53 | 50.66562 | 8.40073 | 25093 ft | 405 kts | 149° |
| 2026-04-28 14:53 | 50.64205 | 8.42416 | 25422 ft | 407 kts | 149° |
| 2026-04-28 14:53 | 50.61801 | 8.44801 | 25757 ft | 409 kts | 149° |
| 2026-04-28 14:53 | 50.59393 | 8.47188 | 26079 ft | 412 kts | 149° |
| 2026-04-28 14:54 | 50.56948 | 8.49608 | 26398 ft | 414 kts | 149° |
| 2026-04-28 14:54 | 50.54522 | 8.52006 | 26705 ft | 416 kts | 149° |
| 2026-04-28 14:54 | 50.52055 | 8.54439 | 27002 ft | 419 kts | 149° |
| 2026-04-28 14:54 | 50.49604 | 8.56856 | 27294 ft | 421 kts | 149° |
| 2026-04-28 14:55 | 50.47145 | 8.59300 | 27581 ft | 423 kts | 148° |
| 2026-04-28 14:55 | 50.44704 | 8.62034 | 27872 ft | 426 kts | 143° |
| 2026-04-28 14:55 | 50.42432 | 8.64999 | 28150 ft | 430 kts | 139° |
| 2026-04-28 14:55 | 50.40264 | 8.68207 | 28427 ft | 432 kts | 138° |
| 2026-04-28 14:56 | 50.38111 | 8.71468 | 28702 ft | 434 kts | 137° |
| 2026-04-28 14:56 | 50.35939 | 8.74758 | 28973 ft | 436 kts | 137° |
| 2026-04-28 14:56 | 50.33765 | 8.78043 | 29236 ft | 438 kts | 137° |
| 2026-04-28 14:56 | 50.31573 | 8.81346 | 29494 ft | 440 kts | 138° |
| 2026-04-28 14:57 | 50.29372 | 8.84652 | 29748 ft | 442 kts | 138° |
| 2026-04-28 14:57 | 50.27872 | 8.86902 | 29918 ft | 443 kts | 138° |
| 2026-04-28 14:57 | 50.24926 | 8.91313 | 30259 ft | 446 kts | 138° |
| 2026-04-28 14:57 | 50.22670 | 8.94684 | 30522 ft | 448 kts | 138° |
| 2026-04-28 14:58 | 50.20417 | 8.98045 | 30780 ft | 450 kts | 138° |
| 2026-04-28 14:58 | 50.18184 | 9.01373 | 31029 ft | 452 kts | 138° |
| 2026-04-28 14:58 | 50.15895 | 9.04779 | 31265 ft | 453 kts | 138° |
| 2026-04-28 14:58 | 50.13615 | 9.08167 | 31494 ft | 455 kts | 138° |
| 2026-04-28 14:59 | 50.11444 | 9.11719 | 31701 ft | 459 kts | 130° |
| 2026-04-28 14:59 | 50.09586 | 9.15778 | 31911 ft | 462 kts | 122° |
| 2026-04-28 14:59 | 50.08125 | 9.20219 | 32102 ft | 465 kts | 113° |
| 2026-04-28 14:59 | 50.07085 | 9.25005 | 32291 ft | 467 kts | 104° |
| 2026-04-28 15:00 | 50.06511 | 9.29973 | 32493 ft | 468 kts | 95° |
| 2026-04-28 15:00 | 50.06392 | 9.34971 | 32739 ft | 467 kts | 88° |
| 2026-04-28 15:00 | 50.06473 | 9.40016 | 33004 ft | 467 kts | 87° |
| 2026-04-28 15:00 | 50.06587 | 9.45030 | 33239 ft | 467 kts | 87° |
| 2026-04-28 15:01 | 50.06686 | 9.50080 | 33453 ft | 468 kts | 87° |
| 2026-04-28 15:01 | 50.06764 | 9.55129 | 33644 ft | 470 kts | 88° |
| 2026-04-28 15:01 | 50.06827 | 9.60301 | 33837 ft | 471 kts | 88° |
| 2026-04-28 15:01 | 50.06862 | 9.65438 | 34021 ft | 473 kts | 91° |
| 2026-04-28 15:02 | 50.06629 | 9.70556 | 34182 ft | 475 kts | 98° |
| 2026-04-28 15:02 | 50.06034 | 9.75670 | 34349 ft | 475 kts | 105° |
| 2026-04-28 15:02 | 50.05077 | 9.80663 | 34509 ft | 475 kts | 112° |
| 2026-04-28 15:02 | 50.03796 | 9.85383 | 34669 ft | 475 kts | 118° |
| 2026-04-28 15:03 | 50.02186 | 9.89886 | 34830 ft | 473 kts | 125° |
| 2026-04-28 15:03 | 50.00420 | 9.94104 | 34996 ft | 474 kts | 127° |
| 2026-04-28 15:03 | 49.98580 | 9.98368 | 35145 ft | 475 kts | 127° |
| 2026-04-28 15:04 | 49.94895 | 10.06909 | 35193 ft | 476 kts | 127° |
| 2026-04-28 15:04 | 49.91233 | 10.15446 | 35172 ft | 478 kts | 127° |
| 2026-04-28 15:05 | 49.87534 | 10.24074 | 35154 ft | 482 kts | 126° |
| 2026-04-28 15:05 | 49.83827 | 10.32716 | 35146 ft | 486 kts | 126° |
| 2026-04-28 15:06 | 49.80095 | 10.41402 | 35144 ft | 487 kts | 126° |
| 2026-04-28 15:06 | 49.76329 | 10.50133 | 35146 ft | 488 kts | 126° |
| 2026-04-28 15:07 | 49.72572 | 10.58812 | 35148 ft | 488 kts | 126° |
| 2026-04-28 15:07 | 49.68792 | 10.67518 | 35146 ft | 489 kts | 127° |
| 2026-04-28 15:08 | 49.64987 | 10.76250 | 35145 ft | 490 kts | 127° |
| 2026-04-28 15:08 | 49.61214 | 10.84876 | 35143 ft | 491 kts | 127° |
| 2026-04-28 15:09 | 49.57394 | 10.93584 | 35144 ft | 492 kts | 127° |
| 2026-04-28 15:09 | 49.53581 | 11.02331 | 35145 ft | 493 kts | 125° |
| 2026-04-28 15:10 | 49.50258 | 11.11495 | 35147 ft | 496 kts | 119° |
| 2026-04-28 15:10 | 49.47168 | 11.20958 | 35146 ft | 497 kts | 118° |
| 2026-04-28 15:11 | 49.44067 | 11.30426 | 35148 ft | 498 kts | 119° |
| 2026-04-28 15:11 | 49.40959 | 11.39838 | 35151 ft | 498 kts | 119° |
| 2026-04-28 15:12 | 49.37806 | 11.49334 | 35156 ft | 499 kts | 119° |
| 2026-04-28 15:12 | 49.34658 | 11.58777 | 35159 ft | 499 kts | 119° |
| 2026-04-28 15:13 | 49.31503 | 11.68207 | 35149 ft | 499 kts | 120° |
| 2026-04-28 15:13 | 49.28332 | 11.77651 | 35139 ft | 499 kts | 120° |
| 2026-04-28 15:14 | 49.25174 | 11.87016 | 35134 ft | 500 kts | 120° |
| 2026-04-28 15:14 | 49.21974 | 11.96474 | 35131 ft | 500 kts | 120° |
| 2026-04-28 15:15 | 49.18799 | 12.05821 | 35129 ft | 500 kts | 120° |
| 2026-04-28 15:15 | 49.15601 | 12.15204 | 35133 ft | 500 kts | 120° |
| 2026-04-28 15:16 | 49.12339 | 12.24736 | 35134 ft | 501 kts | 120° |
| 2026-04-28 15:16 | 49.09084 | 12.34217 | 35128 ft | 502 kts | 120° |
| 2026-04-28 15:17 | 49.05842 | 12.43622 | 35127 ft | 503 kts | 120° |
| 2026-04-28 15:17 | 49.02591 | 12.53020 | 35132 ft | 503 kts | 120° |
| 2026-04-28 15:18 | 48.99332 | 12.62406 | 35133 ft | 503 kts | 120° |
| 2026-04-28 15:18 | 48.96064 | 12.71792 | 35132 ft | 503 kts | 121° |
| 2026-04-28 15:19 | 48.92783 | 12.81174 | 35131 ft | 503 kts | 121° |
| 2026-04-28 15:19 | 48.89498 | 12.90530 | 35129 ft | 504 kts | 121° |
| 2026-04-28 15:20 | 48.86206 | 12.99872 | 35131 ft | 504 kts | 121° |
| 2026-04-28 15:20 | 48.82899 | 13.09224 | 35133 ft | 504 kts | 121° |
| 2026-04-28 15:21 | 48.79584 | 13.18570 | 35135 ft | 505 kts | 121° |
| 2026-04-28 15:21 | 48.76253 | 13.27922 | 35137 ft | 505 kts | 121° |
| 2026-04-28 15:22 | 48.72912 | 13.37269 | 35139 ft | 506 kts | 121° |
| 2026-04-28 15:22 | 48.69554 | 13.46626 | 35140 ft | 506 kts | 121° |
| 2026-04-28 15:23 | 48.66198 | 13.55894 | 35140 ft | 506 kts | 122° |
| 2026-04-28 15:23 | 48.62369 | 13.64779 | 35143 ft | 503 kts | 128° |
| 2026-04-28 15:24 | 48.58325 | 13.73348 | 35142 ft | 503 kts | 129° |
| 2026-04-28 15:24 | 48.54247 | 13.81951 | 35141 ft | 504 kts | 129° |
| 2026-04-28 15:25 | 48.50194 | 13.90508 | 35138 ft | 504 kts | 129° |
| 2026-04-28 15:25 | 48.46136 | 13.99062 | 35134 ft | 505 kts | 129° |
| 2026-04-28 15:26 | 48.42040 | 14.07677 | 35131 ft | 506 kts | 129° |
| 2026-04-28 15:26 | 48.37961 | 14.16231 | 35129 ft | 506 kts | 129° |
| 2026-04-28 15:27 | 48.33881 | 14.24753 | 35126 ft | 507 kts | 129° |
| 2026-04-28 15:27 | 48.29760 | 14.33334 | 35121 ft | 507 kts | 129° |
| 2026-04-28 15:28 | 48.25627 | 14.41915 | 35117 ft | 508 kts | 129° |
| 2026-04-28 15:28 | 48.21491 | 14.50474 | 35115 ft | 508 kts | 129° |
| 2026-04-28 15:29 | 48.17352 | 14.59011 | 35117 ft | 508 kts | 129° |
| 2026-04-28 15:29 | 48.13209 | 14.67522 | 35116 ft | 507 kts | 130° |
| 2026-04-28 15:30 | 48.09063 | 14.76018 | 35109 ft | 507 kts | 130° |
| 2026-04-28 15:30 | 48.04906 | 14.84525 | 35098 ft | 508 kts | 129° |
| 2026-04-28 15:31 | 48.00916 | 14.93202 | 35095 ft | 510 kts | 127° |
| 2026-04-28 15:31 | 47.96956 | 15.01944 | 35087 ft | 510 kts | 127° |
| 2026-04-28 15:32 | 47.92963 | 15.10680 | 35093 ft | 511 kts | 127° |
| 2026-04-28 15:32 | 47.88956 | 15.19387 | 35129 ft | 512 kts | 127° |
| 2026-04-28 15:33 | 47.84938 | 15.28078 | 35154 ft | 513 kts | 127° |
| 2026-04-28 15:33 | 47.80891 | 15.36807 | 35169 ft | 514 kts | 127° |
| 2026-04-28 15:34 | 47.76826 | 15.45549 | 35190 ft | 515 kts | 127° |
| 2026-04-28 15:34 | 47.72783 | 15.54216 | 35186 ft | 516 kts | 127° |
| 2026-04-28 15:35 | 47.68687 | 15.62968 | 35182 ft | 516 kts | 127° |
| 2026-04-28 15:35 | 47.62533 | 15.76070 | 35168 ft | 517 kts | 128° |
| 2026-04-28 15:36 | 47.58369 | 15.84897 | 35171 ft | 517 kts | 128° |
| 2026-04-28 15:36 | 47.54274 | 15.93549 | 35182 ft | 517 kts | 128° |
| 2026-04-28 15:37 | 47.50138 | 16.02260 | 35199 ft | 518 kts | 128° |
| 2026-04-28 15:37 | 47.46707 | 16.09465 | 35195 ft | 518 kts | 128° |
| 2026-04-28 15:38 | 47.41858 | 16.19616 | 35168 ft | 519 kts | 127° |
| 2026-04-28 15:38 | 47.37707 | 16.28280 | 35145 ft | 518 kts | 127° |
| 2026-04-28 15:39 | 47.33549 | 16.36930 | 35135 ft | 518 kts | 127° |
| 2026-04-28 15:39 | 47.29390 | 16.45552 | 35129 ft | 518 kts | 127° |
| 2026-04-28 15:40 | 47.25069 | 16.53942 | 35128 ft | 516 kts | 130° |
| 2026-04-28 15:40 | 47.20672 | 16.62229 | 35129 ft | 515 kts | 130° |
| 2026-04-28 15:41 | 47.16298 | 16.70456 | 35129 ft | 514 kts | 131° |
| 2026-04-28 15:41 | 47.11875 | 16.78758 | 35130 ft | 514 kts | 131° |
| 2026-04-28 15:42 | 47.07492 | 16.86966 | 35132 ft | 513 kts | 131° |
| 2026-04-28 15:42 | 47.03102 | 16.95146 | 35133 ft | 513 kts | 132° |
| 2026-04-28 15:43 | 46.98318 | 17.02865 | 35134 ft | 510 kts | 137° |
| 2026-04-28 15:43 | 46.93439 | 17.10319 | 35137 ft | 510 kts | 137° |
| 2026-04-28 15:44 | 46.88573 | 17.17822 | 35140 ft | 510 kts | 136° |
| 2026-04-28 15:44 | 46.83724 | 17.25339 | 35142 ft | 510 kts | 136° |
| 2026-04-28 15:45 | 46.78844 | 17.32903 | 35143 ft | 510 kts | 136° |
| 2026-04-28 15:45 | 46.74014 | 17.40371 | 35143 ft | 510 kts | 136° |
| 2026-04-28 15:46 | 46.69138 | 17.47888 | 35143 ft | 510 kts | 136° |
| 2026-04-28 15:46 | 46.64282 | 17.55352 | 35144 ft | 510 kts | 136° |
| 2026-04-28 15:47 | 46.59434 | 17.62784 | 35144 ft | 509 kts | 136° |
| 2026-04-28 15:47 | 46.56965 | 17.66561 | 34952 ft | 509 kts | 137° |
| 2026-04-28 15:47 | 46.54532 | 17.70281 | 34744 ft | 506 kts | 137° |
| 2026-04-28 15:48 | 46.52127 | 17.73951 | 34536 ft | 504 kts | 137° |
| 2026-04-28 15:48 | 46.49735 | 17.77594 | 34295 ft | 501 kts | 137° |
| 2026-04-28 15:48 | 46.47332 | 17.81249 | 34010 ft | 499 kts | 137° |
| 2026-04-28 15:48 | 46.44952 | 17.84865 | 33728 ft | 498 kts | 137° |
| 2026-04-28 15:49 | 46.42548 | 17.88510 | 33444 ft | 499 kts | 137° |
| 2026-04-28 15:49 | 46.40164 | 17.92120 | 33155 ft | 499 kts | 137° |
| 2026-04-28 15:49 | 46.37785 | 17.95718 | 32860 ft | 500 kts | 137° |
| 2026-04-28 15:49 | 46.35382 | 17.99348 | 32562 ft | 500 kts | 137° |
| 2026-04-28 15:50 | 46.32977 | 18.02977 | 32204 ft | 501 kts | 137° |
| 2026-04-28 15:50 | 46.30576 | 18.06595 | 31766 ft | 496 kts | 137° |
| 2026-04-28 15:50 | 46.28207 | 18.10163 | 31403 ft | 494 kts | 136° |
| 2026-04-28 15:50 | 46.25826 | 18.13742 | 30979 ft | 491 kts | 136° |
| 2026-04-28 15:51 | 46.23466 | 18.17285 | 30531 ft | 488 kts | 136° |
| 2026-04-28 15:51 | 46.21149 | 18.20759 | 30086 ft | 484 kts | 136° |
| 2026-04-28 15:51 | 46.18827 | 18.24235 | 29618 ft | 480 kts | 136° |
| 2026-04-28 15:51 | 46.16522 | 18.27682 | 29154 ft | 477 kts | 136° |
| 2026-04-28 15:52 | 46.14231 | 18.31105 | 28692 ft | 473 kts | 136° |
| 2026-04-28 15:52 | 46.11959 | 18.34492 | 28224 ft | 470 kts | 136° |
| 2026-04-28 15:52 | 46.09710 | 18.37842 | 27759 ft | 466 kts | 136° |
| 2026-04-28 15:52 | 46.07470 | 18.41176 | 27311 ft | 462 kts | 136° |
| 2026-04-28 15:53 | 46.05257 | 18.44467 | 26874 ft | 457 kts | 136° |
| 2026-04-28 15:53 | 46.03035 | 18.47767 | 26446 ft | 452 kts | 136° |
| 2026-04-28 15:53 | 46.00870 | 18.50976 | 26034 ft | 449 kts | 136° |
| 2026-04-28 15:53 | 45.98708 | 18.54178 | 25617 ft | 445 kts | 136° |
| 2026-04-28 15:54 | 45.96581 | 18.57322 | 25193 ft | 442 kts | 137° |
| 2026-04-28 15:54 | 45.94443 | 18.60479 | 24765 ft | 439 kts | 137° |
| 2026-04-28 15:54 | 45.92341 | 18.63578 | 24344 ft | 435 kts | 137° |
| 2026-04-28 15:54 | 45.90242 | 18.66671 | 23924 ft | 432 kts | 137° |
| 2026-04-28 15:55 | 45.88149 | 18.69750 | 23510 ft | 428 kts | 137° |
| 2026-04-28 15:55 | 45.86054 | 18.72828 | 23101 ft | 424 kts | 137° |
| 2026-04-28 15:55 | 45.84018 | 18.75815 | 22695 ft | 421 kts | 137° |
| 2026-04-28 15:55 | 45.81976 | 18.78810 | 22286 ft | 418 kts | 137° |
| 2026-04-28 15:56 | 45.79982 | 18.81727 | 21882 ft | 415 kts | 137° |
| 2026-04-28 15:56 | 45.77959 | 18.84681 | 21476 ft | 412 kts | 137° |
| 2026-04-28 15:56 | 45.75973 | 18.87575 | 21076 ft | 408 kts | 137° |
| 2026-04-28 15:56 | 45.73998 | 18.90454 | 20673 ft | 405 kts | 137° |
| 2026-04-28 15:57 | 45.72037 | 18.93307 | 20270 ft | 402 kts | 137° |
| 2026-04-28 15:57 | 45.70105 | 18.96116 | 19871 ft | 399 kts | 137° |
| 2026-04-28 15:57 | 45.68163 | 18.98938 | 19466 ft | 396 kts | 137° |
| 2026-04-28 15:57 | 45.66231 | 19.01742 | 19061 ft | 393 kts | 137° |
| 2026-04-28 15:58 | 45.64337 | 19.04489 | 18663 ft | 390 kts | 137° |
| 2026-04-28 15:58 | 45.62427 | 19.07255 | 18259 ft | 387 kts | 137° |
| 2026-04-28 15:58 | 45.60573 | 19.09937 | 17857 ft | 384 kts | 136° |
| 2026-04-28 15:58 | 45.58690 | 19.12659 | 17441 ft | 381 kts | 136° |
| 2026-04-28 15:59 | 45.56852 | 19.15313 | 17032 ft | 379 kts | 136° |
| 2026-04-28 15:59 | 45.55619 | 19.17094 | 16755 ft | 377 kts | 136° |
| 2026-04-28 15:59 | 45.53176 | 19.20616 | 16202 ft | 373 kts | 136° |
| 2026-04-28 15:59 | 45.51353 | 19.23239 | 15790 ft | 370 kts | 136° |
| 2026-04-28 16:00 | 45.49562 | 19.25814 | 15381 ft | 368 kts | 136° |
| 2026-04-28 16:00 | 45.47762 | 19.28400 | 14970 ft | 365 kts | 136° |
| 2026-04-28 16:00 | 45.45995 | 19.30937 | 14565 ft | 362 kts | 136° |
| 2026-04-28 16:00 | 45.44225 | 19.33471 | 14157 ft | 357 kts | 136° |
| 2026-04-28 16:01 | 45.42484 | 19.35972 | 13754 ft | 354 kts | 136° |
| 2026-04-28 16:01 | 45.40776 | 19.38419 | 13359 ft | 351 kts | 136° |
| 2026-04-28 16:01 | 45.39061 | 19.40879 | 12952 ft | 348 kts | 136° |
| 2026-04-28 16:01 | 45.37347 | 19.43327 | 12548 ft | 345 kts | 136° |
| 2026-04-28 16:02 | 45.36236 | 19.44911 | 12285 ft | 344 kts | 136° |
| 2026-04-28 16:02 | 45.33994 | 19.48105 | 11754 ft | 339 kts | 136° |
| 2026-04-28 16:02 | 45.32347 | 19.50448 | 11363 ft | 337 kts | 136° |
| 2026-04-28 16:02 | 45.30685 | 19.52802 | 10968 ft | 334 kts | 136° |
| 2026-04-28 16:03 | 45.29057 | 19.55115 | 10583 ft | 331 kts | 136° |
| 2026-04-28 16:03 | 45.27462 | 19.57382 | 10258 ft | 325 kts | 136° |
| 2026-04-28 16:03 | 45.25881 | 19.59632 | 10139 ft | 312 kts | 135° |
| 2026-04-28 16:03 | 45.24390 | 19.61750 | 10033 ft | 300 kts | 135° |
| 2026-04-28 16:04 | 45.22934 | 19.63815 | 9838 ft | 293 kts | 135° |
| 2026-04-28 16:04 | 45.21502 | 19.65845 | 9498 ft | 292 kts | 136° |
| 2026-04-28 16:04 | 45.20067 | 19.67877 | 9162 ft | 290 kts | 136° |
| 2026-04-28 16:04 | 45.18650 | 19.69880 | 8830 ft | 289 kts | 136° |
| 2026-04-28 16:05 | 45.17226 | 19.71893 | 8495 ft | 287 kts | 136° |
| 2026-04-28 16:05 | 45.15804 | 19.73899 | 8157 ft | 286 kts | 135° |
| 2026-04-28 16:05 | 45.14408 | 19.75869 | 7826 ft | 284 kts | 135° |
| 2026-04-28 16:05 | 45.13013 | 19.77837 | 7495 ft | 282 kts | 135° |
| 2026-04-28 16:06 | 45.11641 | 19.79770 | 7170 ft | 280 kts | 135° |
| 2026-04-28 16:06 | 45.10265 | 19.81709 | 6844 ft | 278 kts | 135° |
| 2026-04-28 16:06 | 45.08911 | 19.83613 | 6521 ft | 275 kts | 135° |
| 2026-04-28 16:06 | 45.07555 | 19.85518 | 6197 ft | 272 kts | 135° |
| 2026-04-28 16:07 | 45.06218 | 19.87393 | 5875 ft | 270 kts | 135° |
| 2026-04-28 16:07 | 45.04901 | 19.89242 | 5558 ft | 268 kts | 135° |
| 2026-04-28 16:07 | 45.02274 | 19.92931 | 4921 ft | 264 kts | 134° |
| 2026-04-28 16:08 | 45.00976 | 19.94750 | 4606 ft | 262 kts | 134° |
| 2026-04-28 16:08 | 44.99672 | 19.96573 | 4288 ft | 261 kts | 134° |
| 2026-04-28 16:08 | 44.98390 | 19.98365 | 3973 ft | 259 kts | 134° |
| 2026-04-28 16:09 | 44.95898 | 20.01910 | 3341 ft | 250 kts | 132° |
| 2026-04-28 16:09 | 44.94741 | 20.03663 | 3067 ft | 239 kts | 131° |
| 2026-04-28 16:09 | 44.93630 | 20.05294 | 3044 ft | 219 kts | 133° |
| 2026-04-28 16:10 | 44.91856 | 20.08324 | 3029 ft | 192 kts | 121° |
| 2026-04-28 16:10 | 44.91155 | 20.09911 | 3015 ft | 192 kts | 118° |
| 2026-04-28 16:10 | 44.89761 | 20.13140 | 2922 ft | 192 kts | 119° |
| 2026-04-28 16:11 | 44.88399 | 20.16192 | 2434 ft | 177 kts | 119° |
| 2026-04-28 16:11 | 44.87137 | 20.19013 | 1999 ft | 167 kts | 118° |
| 2026-04-28 16:12 | 44.85909 | 20.21772 | 1551 ft | 157 kts | 119° |
| 2026-04-28 16:12 | 44.85351 | 20.23017 | 1318 ft | 147 kts | 119° |
| 2026-04-28 16:13 | 44.84269 | 20.25448 | 956 ft | 146 kts | 117° |
| 2026-04-28 16:13 | 44.83735 | 20.26662 | 769 ft | 146 kts | 117° |
| 2026-04-28 16:13 | 44.82661 | 20.29056 | 397 ft | 144 kts | 117° |
| 2026-04-28 16:14 | 44.81782 | 20.31068 | 343 ft | 65 kts | 123° |
| 2026-04-28 16:14 | 44.81457 | 20.31351 | 343 ft | 15 kts | 279° |
| 2026-04-28 16:15 | 44.81567 | 20.31086 | 343 ft | 15 kts | 302° |
| 2026-04-28 16:15 | 44.81626 | 20.30957 | 343 ft | 15 kts | 303° |
| 2026-04-28 16:15 | 44.81687 | 20.30828 | 343 ft | 15 kts | 303° |
| 2026-04-28 16:16 | 44.81801 | 20.30566 | 343 ft | 15 kts | 301° |
| 2026-04-28 16:16 | 44.81861 | 20.30429 | 343 ft | 16 kts | 302° |
| 2026-04-28 16:17 | 44.81995 | 20.30135 | 343 ft | 18 kts | 301° |
| 2026-04-28 16:17 | 44.82065 | 20.29975 | 343 ft | 19 kts | 302° |
| 2026-04-28 16:17 | 44.82137 | 20.29809 | 343 ft | 20 kts | 301° |
| 2026-04-28 16:17 | 44.82200 | 20.29657 | 343 ft | 14 kts | 282° |
| 2026-04-28 16:18 | 44.82184 | 20.29604 | 343 ft | 0 kts | 218° |
| 2026-04-28 16:19 | 44.82161 | 20.29579 | 343 ft | 7 kts | 217° |
| 2026-04-28 16:19 | 44.82112 | 20.29538 | 343 ft | 8 kts | 211° |
| 2026-04-28 16:19 | 44.82057 | 20.29492 | 343 ft | 9 kts | 211° |
| 2026-04-28 16:19 | 44.81995 | 20.29439 | 343 ft | 10 kts | 212° |
| 2026-04-28 16:20 | 44.81929 | 20.29381 | 343 ft | 11 kts | 212° |
| 2026-04-28 16:20 | 44.81860 | 20.29319 | 343 ft | 12 kts | 212° |
| 2026-04-28 16:20 | 44.81787 | 20.29254 | 343 ft | 12 kts | 212° |
| 2026-04-28 16:20 | 44.81721 | 20.29194 | 343 ft | 8 kts | 215° |
| 2026-04-28 16:21 | 44.81715 | 20.29143 | 343 ft | 5 kts | 299° |
| 2026-04-28 16:21 | 44.81728 | 20.29111 | 343 ft | 2 kts | 301° |
| 2026-04-28 16:21 | 44.81731 | 20.29105 | 343 ft | 0 kts | 301° |